Terminal Aerodrome Forecast
Issued by NWS Northern Indiana

Home | Current Version | Previous Version | Text Only | Print | Product List | Glossary On
Versions: 1 2 3 4 5 6 7 8 9 10 11 12 13 14 15
998
FTUS43 KIWX 132339
TAFFWA
TAF
KFWA 132339Z 1400/1424 29005KT P6SM SCT035
     FM141400 13010KT P6SM SCT150 OVC200
     FM142000 12013KT 3SM -SN OVC015=

USA.gov is the U.S. government's official web portal to all federal, state and local government web resources and services.